Terminal Aerodrome Forecast
Issued by NWS Wilmington, OH

Current Version | Previous Version | Graphics & Text | Print | Product List | Glossary On
Versions: 1 2 3 4 5 6 7 8 9 10 11 12 13
941
FTUS41 KILN 181135
TAFILN
TAF
KILN 181135Z 1812/1912 25007KT P6SM SCT010 BKN050
      TEMPO 1812/1814 5SM BR SCT008
     FM181700 27012G17KT P6SM SCT035
     FM190000 27007KT P6SM FEW200
     FM191100 20004KT P6SM BKN100=

USA.gov is the U.S. government's official web portal to all federal, state and local government web resources and services.